Time;durP1;ratioP1;P1;durP2;ratioP2;P2;SDS_P1;SDS_P2;PMS_P1;PMS_P2;Temp;Humidity;BMP_temperature;BMP_pressure;BME280_temperature;BME280_humidity;BME280_pressure;Samples;Min_cycle;Max_cycle;Signal;HPM_P1;HPM_P2
2023/12/16 00:02:04;;;;;;;;;69.75;55.25;;;;;;;;5090002;28;46058;-81
2023/12/16 00:04:30;;;;;;;;;67.75;55.00;;;;;;;;5086902;28;48127;-81
2023/12/16 00:06:55;;;;;;;;;68.75;57.25;;;;;;;;5088675;28;45396;-80
2023/12/16 00:09:20;;;;;;;;;71.25;57.25;;;;;;;;5089573;27;45372;-80
2023/12/16 00:11:45;;;;;;;;;67.75;54.75;;;;;;;;5086283;28;46423;-80
2023/12/16 00:14:10;;;;;;;;;72.50;58.25;;;;;;;;5104486;27;48182;-80
2023/12/16 00:16:36;;;;;;;;;69.75;55.00;;;;;;;;5088999;27;45449;-80
2023/12/16 00:19:01;;;;;;;;;71.50;56.25;;;;;;;;5105057;27;45321;-80
2023/12/16 00:21:26;;;;;;;;;60.50;50.50;;;;;;;;5090729;28;45465;-80
2023/12/16 00:23:51;;;;;;;;;74.75;59.00;;;;;;;;5087716;28;46990;-81
2023/12/16 00:26:17;;;;;;;;;73.00;59.00;;;;;;;;5104430;27;45784;-80
2023/12/16 00:28:42;;;;;;;;;71.75;56.75;;;;;;;;5088811;27;45448;-80
2023/12/16 00:31:07;;;;;;;;;72.50;57.25;;;;;;;;5102785;27;45894;-81
2023/12/16 00:33:32;;;;;;;;;72.25;58.50;;;;;;;;5088009;28;45460;-79
2023/12/16 00:35:58;;;;;;;;;69.25;54.50;;;;;;;;5088017;28;45299;-80
2023/12/16 00:38:23;;;;;;;;;70.75;57.25;;;;;;;;5087158;28;45371;-81
2023/12/16 00:40:48;;;;;;;;;68.50;55.00;;;;;;;;5087691;27;45383;-81
2023/12/16 00:43:13;;;;;;;;;69.50;55.00;;;;;;;;5102891;27;47898;-80
2023/12/16 00:45:39;;;;;;;;;66.25;54.75;;;;;;;;5102584;27;45401;-80
2023/12/16 00:48:04;;;;;;;;;68.50;56.25;;;;;;;;5100991;27;45305;-81
2023/12/16 00:50:29;;;;;;;;;71.50;57.00;;;;;;;;5103193;27;47587;-80
2023/12/16 00:52:54;;;;;;;;;70.75;57.00;;;;;;;;5085706;27;45325;-81
2023/12/16 00:55:19;;;;;;;;;72.50;58.50;;;;;;;;5102214;27;45263;-80
2023/12/16 00:57:45;;;;;;;;;73.50;57.50;;;;;;;;5074438;28;45266;-80
2023/12/16 01:00:10;;;;;;;;;72.50;56.50;;;;;;;;5072854;28;46396;-80
2023/12/16 01:02:35;;;;;;;;;61.75;51.25;;;;;;;;5067395;28;48023;-80
2023/12/16 01:05:00;;;;;;;;;64.50;53.50;;;;;;;;5083479;28;45600;-80
2023/12/16 01:07:26;;;;;;;;;70.50;56.75;;;;;;;;5066175;28;45289;-80
2023/12/16 01:09:51;;;;;;;;;71.25;56.25;;;;;;;;5083968;28;45232;-81
2023/12/16 01:12:17;;;;;;;;;66.75;54.25;;;;;;;;5085363;28;45270;-81
2023/12/16 01:14:42;;;;;;;;;62.00;51.25;;;;;;;;5087543;28;45362;-81
2023/12/16 01:17:07;;;;;;;;;63.25;53.50;;;;;;;;5083827;28;45321;-81
2023/12/16 01:19:32;;;;;;;;;64.50;52.25;;;;;;;;5082051;28;46308;-81
2023/12/16 01:21:57;;;;;;;;;64.00;52.75;;;;;;;;5065182;28;48497;-81
2023/12/16 01:24:23;;;;;;;;;63.50;52.50;;;;;;;;5084390;28;45219;-80
2023/12/16 01:26:48;;;;;;;;;66.00;53.00;;;;;;;;5081452;28;45680;-80
2023/12/16 01:29:13;;;;;;;;;59.50;49.75;;;;;;;;5085260;28;45450;-80
2023/12/16 01:31:38;;;;;;;;;61.75;51.25;;;;;;;;5079797;28;47067;-81
2023/12/16 01:34:04;;;;;;;;;58.75;49.00;;;;;;;;5082245;28;45941;-80
2023/12/16 01:36:29;;;;;;;;;59.25;50.25;;;;;;;;5082328;28;45327;-81
2023/12/16 01:38:55;;;;;;;;;59.75;49.00;;;;;;;;5063070;28;47020;-80
2023/12/16 01:41:20;;;;;;;;;64.50;52.50;;;;;;;;5062532;28;46911;-81
2023/12/16 01:43:45;;;;;;;;;59.75;49.00;;;;;;;;5100338;27;45664;-81
2023/12/16 01:46:11;;;;;;;;;63.25;51.25;;;;;;;;5082994;27;45389;-81
2023/12/16 01:48:36;;;;;;;;;64.50;50.00;;;;;;;;5100959;27;45510;-80
2023/12/16 01:51:01;;;;;;;;;62.75;50.00;;;;;;;;5082631;27;47383;-80
2023/12/16 01:53:27;;;;;;;;;61.00;50.50;;;;;;;;5101969;27;45360;-80
2023/12/16 01:55:53;;;;;;;;;57.50;46.50;;;;;;;;5107612;27;45531;-81
2023/12/16 01:58:19;;;;;;;;;59.25;49.75;;;;;;;;5084487;27;45417;-80
2023/12/16 02:00:45;;;;;;;;;46.75;37.25;;;;;;;;5079991;28;47436;-81
2023/12/16 02:03:10;;;;;;;;;63.00;52.25;;;;;;;;5096275;27;45276;-80
2023/12/16 02:05:36;;;;;;;;;60.75;49.50;;;;;;;;5082334;27;45317;-80
2023/12/16 02:08:01;;;;;;;;;62.50;49.50;;;;;;;;5080129;27;45348;-81
2023/12/16 02:10:26;;;;;;;;;61.25;50.75;;;;;;;;5079488;27;46457;-80
2023/12/16 02:12:51;;;;;;;;;63.25;52.50;;;;;;;;5081374;27;45278;-80
2023/12/16 02:15:16;;;;;;;;;64.25;53.25;;;;;;;;5079752;28;45534;-80
2023/12/16 02:17:42;;;;;;;;;63.50;52.00;;;;;;;;5095291;27;46438;-80
2023/12/16 02:20:07;;;;;;;;;68.00;54.50;;;;;;;;5079803;27;46544;-81
2023/12/16 02:22:32;;;;;;;;;59.00;49.75;;;;;;;;5098662;27;45740;-80
2023/12/16 02:24:58;;;;;;;;;62.00;51.50;;;;;;;;5082137;28;45420;-81
2023/12/16 02:27:23;;;;;;;;;65.25;51.75;;;;;;;;5083843;28;45226;-80
2023/12/16 02:29:48;;;;;;;;;64.25;52.25;;;;;;;;5102071;27;47880;-80
2023/12/16 02:32:13;;;;;;;;;66.75;53.50;;;;;;;;5082654;28;45322;-80
2023/12/16 02:34:39;;;;;;;;;63.25;48.75;;;;;;;;5082406;28;45484;-80
2023/12/16 02:37:06;;;;;;;;;57.25;48.25;;;;;;;;5081464;28;46145;-80
2023/12/16 02:39:32;;;;;;;;;61.75;50.50;;;;;;;;5084570;28;45609;-80
2023/12/16 02:41:57;;;;;;;;;61.25;50.25;;;;;;;;5098341;27;45678;-80
2023/12/16 02:44:22;;;;;;;;;60.00;50.75;;;;;;;;5082230;28;45754;-80
2023/12/16 02:46:48;;;;;;;;;61.25;51.25;;;;;;;;5098602;27;47342;-80
2023/12/16 02:49:13;;;;;;;;;64.00;52.25;;;;;;;;5098076;27;47341;-80
2023/12/16 02:51:38;;;;;;;;;68.00;55.25;;;;;;;;5099497;27;45466;-80
2023/12/16 02:54:03;;;;;;;;;69.50;54.00;;;;;;;;5099714;27;45351;-80
2023/12/16 02:56:28;;;;;;;;;61.25;50.50;;;;;;;;5098694;27;46197;-80
2023/12/16 02:58:53;;;;;;;;;63.25;50.75;;;;;;;;5080973;28;47331;-81
2023/12/16 03:01:19;;;;;;;;;60.75;48.50;;;;;;;;5081696;28;45306;-80
2023/12/16 03:03:44;;;;;;;;;62.00;52.25;;;;;;;;5082699;28;45501;-81
2023/12/16 03:06:09;;;;;;;;;65.50;52.75;;;;;;;;5064179;28;46199;-80
2023/12/16 03:08:35;;;;;;;;;59.00;48.75;;;;;;;;5082123;28;47871;-80
2023/12/16 03:11:03;;;;;;;;;40.75;34.50;;;;;;;;5063379;28;45181;-80
2023/12/16 03:13:29;;;;;;;;;61.75;50.25;;;;;;;;5064147;28;45437;-81
2023/12/16 03:15:54;;;;;;;;;57.50;49.25;;;;;;;;5064188;28;46271;-80
2023/12/16 03:18:19;;;;;;;;;61.25;50.50;;;;;;;;5080450;28;48085;-80
2023/12/16 03:20:45;;;;;;;;;61.50;50.50;;;;;;;;5081941;28;45248;-80
2023/12/16 03:23:10;;;;;;;;;61.25;49.25;;;;;;;;5080948;28;45394;-80
2023/12/16 03:25:37;;;;;;;;;60.50;52.00;;;;;;;;5081873;28;45433;-80
2023/12/16 03:28:02;;;;;;;;;63.75;52.75;;;;;;;;5081786;28;45442;-80
2023/12/16 03:30:27;;;;;;;;;59.25;48.00;;;;;;;;5063192;28;45971;-80
2023/12/16 03:32:54;;;;;;;;;59.25;46.50;;;;;;;;5081582;28;45334;-80
2023/12/16 03:35:19;;;;;;;;;59.50;51.00;;;;;;;;5082196;28;45384;-80
2023/12/16 03:37:44;;;;;;;;;56.50;46.00;;;;;;;;5080229;28;47163;-80
2023/12/16 03:40:09;;;;;;;;;60.50;49.25;;;;;;;;5082298;28;45258;-80
2023/12/16 03:42:35;;;;;;;;;58.50;49.50;;;;;;;;5082093;28;45248;-80
2023/12/16 03:45:00;;;;;;;;;60.50;48.75;;;;;;;;5082519;28;45726;-80
2023/12/16 03:47:25;;;;;;;;;49.75;44.00;;;;;;;;5080739;28;47153;-80
2023/12/16 03:49:51;;;;;;;;;59.25;48.00;;;;;;;;5059386;28;45456;-80
2023/12/16 03:52:16;;;;;;;;;59.50;49.00;;;;;;;;5060074;28;45505;-81
2023/12/16 03:54:41;;;;;;;;;45.25;41.00;;;;;;;;5059669;28;45912;-80
2023/12/16 03:57:06;;;;;;;;;59.50;49.50;;;;;;;;5059706;28;47025;-80
2023/12/16 03:59:31;;;;;;;;;57.25;47.00;;;;;;;;5076840;28;45814;-80
2023/12/16 04:01:57;;;;;;;;;56.25;47.00;;;;;;;;5076787;28;45234;-80
2023/12/16 04:04:22;;;;;;;;;55.25;46.25;;;;;;;;5076894;28;46917;-80
2023/12/16 04:06:47;;;;;;;;;53.50;46.00;;;;;;;;5061284;28;45572;-80
2023/12/16 04:09:12;;;;;;;;;61.50;49.50;;;;;;;;5060110;28;45319;-80
2023/12/16 04:11:45;;;;;;;;;55.50;47.00;;;;;;;;5076610;28;45365;-80
2023/12/16 04:14:10;;;;;;;;;55.00;46.50;;;;;;;;5060624;28;45727;-80
2023/12/16 04:16:37;;;;;;;;;55.50;46.75;;;;;;;;5076349;28;47308;-80
2023/12/16 04:19:02;;;;;;;;;44.00;40.00;;;;;;;;5076547;28;45790;-80
2023/12/16 04:21:27;;;;;;;;;49.25;42.25;;;;;;;;5076590;28;45280;-80
2023/12/16 04:23:52;;;;;;;;;55.75;45.25;;;;;;;;5075846;28;46263;-80
2023/12/16 04:26:17;;;;;;;;;55.00;46.00;;;;;;;;5059274;28;48314;-80
2023/12/16 04:28:43;;;;;;;;;53.00;43.00;;;;;;;;5060346;28;45342;-80
2023/12/16 04:31:12;;;;;;;;;47.00;40.25;;;;;;;;5059404;28;45331;-80
2023/12/16 04:33:37;;;;;;;;;58.75;46.50;;;;;;;;5060376;28;45319;-80
2023/12/16 04:36:03;;;;;;;;;56.75;46.00;;;;;;;;5060257;28;46243;-80
2023/12/16 04:38:28;;;;;;;;;53.25;44.75;;;;;;;;5060307;28;45362;-80
2023/12/16 04:40:53;;;;;;;;;52.25;42.50;;;;;;;;5059217;28;45397;-80
2023/12/16 04:43:19;;;;;;;;;55.25;44.00;;;;;;;;5059814;28;45542;-80
2023/12/16 04:45:45;;;;;;;;;39.75;37.25;;;;;;;;5058339;28;48083;-80
2023/12/16 04:48:10;;;;;;;;;46.50;42.25;;;;;;;;5075571;28;45462;-80
2023/12/16 04:50:35;;;;;;;;;48.75;43.00;;;;;;;;5073948;28;45291;-80
2023/12/16 04:53:00;;;;;;;;;51.00;42.25;;;;;;;;5061286;28;47037;-81
2023/12/16 04:55:25;;;;;;;;;55.25;45.75;;;;;;;;5079886;28;45336;-79
2023/12/16 04:57:51;;;;;;;;;51.00;41.50;;;;;;;;5087750;27;45710;-80
2023/12/16 05:00:16;;;;;;;;;53.00;44.75;;;;;;;;5080439;27;45512;-80
2023/12/16 05:02:42;;;;;;;;;24.00;20.25;;;;;;;;5080456;27;45270;-80
2023/12/16 05:05:07;;;;;;;;;47.75;41.50;;;;;;;;5078911;28;48478;-80
2023/12/16 05:07:32;;;;;;;;;46.50;41.50;;;;;;;;5096086;27;46414;-80
2023/12/16 05:09:57;;;;;;;;;53.75;41.75;;;;;;;;5080393;27;45207;-80
2023/12/16 05:12:23;;;;;;;;;52.75;44.25;;;;;;;;5094866;27;47105;-80
2023/12/16 05:14:48;;;;;;;;;56.25;45.25;;;;;;;;5079882;27;45545;-80
2023/12/16 05:17:13;;;;;;;;;47.00;40.00;;;;;;;;5095928;27;45486;-80
2023/12/16 05:19:38;;;;;;;;;47.25;41.25;;;;;;;;5080322;27;45242;-80
2023/12/16 05:22:03;;;;;;;;;38.75;35.75;;;;;;;;5080154;27;45233;-80
2023/12/16 05:24:29;;;;;;;;;39.50;38.25;;;;;;;;5095656;27;47373;-80
2023/12/16 05:26:54;;;;;;;;;47.25;42.50;;;;;;;;5080199;28;45144;-80
2023/12/16 05:29:19;;;;;;;;;38.75;34.75;;;;;;;;5078629;28;45466;-80
2023/12/16 05:31:44;;;;;;;;;52.00;43.75;;;;;;;;5095715;27;47422;-80
2023/12/16 05:34:10;;;;;;;;;54.25;46.00;;;;;;;;5078473;28;47018;-80
2023/12/16 05:36:35;;;;;;;;;53.00;44.00;;;;;;;;5079954;27;45320;-80
2023/12/16 05:39:00;;;;;;;;;40.50;37.25;;;;;;;;5078645;28;45358;-80
2023/12/16 05:41:26;;;;;;;;;54.00;44.75;;;;;;;;5079411;27;45477;-80
2023/12/16 05:43:51;;;;;;;;;49.00;42.50;;;;;;;;5061327;28;47309;-80
2023/12/16 05:46:16;;;;;;;;;49.50;43.00;;;;;;;;5061614;28;45374;-80
2023/12/16 05:48:41;;;;;;;;;52.00;43.25;;;;;;;;5061182;28;45347;-80
2023/12/16 05:51:06;;;;;;;;;39.00;36.00;;;;;;;;5077805;27;47219;-80
2023/12/16 05:53:34;;;;;;;;;41.50;38.25;;;;;;;;5079006;28;45401;-80
2023/12/16 05:56:00;;;;;;;;;46.00;41.25;;;;;;;;5080251;28;45318;-81
2023/12/16 05:58:25;;;;;;;;;43.75;38.75;;;;;;;;5082779;28;45275;-80
2023/12/16 06:00:50;;;;;;;;;48.00;41.25;;;;;;;;5083231;28;45506;-80
2023/12/16 06:03:15;;;;;;;;;47.75;43.00;;;;;;;;5083160;28;45388;-80
2023/12/16 06:05:41;;;;;;;;;48.50;40.00;;;;;;;;5098672;27;45924;-80
2023/12/16 06:08:06;;;;;;;;;45.75;41.25;;;;;;;;5084441;27;45258;-79
2023/12/16 06:10:31;;;;;;;;;47.75;39.50;;;;;;;;5086839;27;45419;-80
2023/12/16 06:12:56;;;;;;;;;45.25;40.25;;;;;;;;5082891;28;47209;-79
2023/12/16 06:15:21;;;;;;;;;40.75;36.00;;;;;;;;5081333;28;45914;-80
2023/12/16 06:17:46;;;;;;;;;42.50;38.00;;;;;;;;5083132;27;45202;-80
2023/12/16 06:20:12;;;;;;;;;44.75;37.25;;;;;;;;5083143;27;45197;-79
2023/12/16 06:22:37;;;;;;;;;41.00;38.00;;;;;;;;5098486;27;47408;-80
2023/12/16 06:25:02;;;;;;;;;40.00;38.00;;;;;;;;5081699;28;45229;-80
2023/12/16 06:27:27;;;;;;;;;52.00;42.25;;;;;;;;5083672;27;45134;-80
2023/12/16 06:29:52;;;;;;;;;45.50;36.75;;;;;;;;5082615;27;45203;-80
2023/12/16 06:32:18;;;;;;;;;41.75;37.25;;;;;;;;5098476;27;48388;-80
2023/12/16 06:34:43;;;;;;;;;47.75;40.25;;;;;;;;5098463;27;46121;-79
2023/12/16 06:37:08;;;;;;;;;41.75;36.50;;;;;;;;5098467;27;45286;-80
2023/12/16 06:39:33;;;;;;;;;40.00;37.00;;;;;;;;5082762;28;45873;-79
2023/12/16 06:41:58;;;;;;;;;42.25;37.75;;;;;;;;5082442;28;45190;-80
2023/12/16 06:44:24;;;;;;;;;40.50;37.75;;;;;;;;5081115;28;45265;-80
2023/12/16 06:46:49;;;;;;;;;33.00;31.25;;;;;;;;5085462;27;45242;-80
2023/12/16 06:49:14;;;;;;;;;46.25;38.50;;;;;;;;5080851;28;45480;-80
2023/12/16 06:51:39;;;;;;;;;39.50;36.75;;;;;;;;5080711;28;45470;-80
2023/12/16 06:54:04;;;;;;;;;40.50;38.00;;;;;;;;5081719;28;45390;-80
2023/12/16 06:56:30;;;;;;;;;39.75;35.50;;;;;;;;5081573;28;45347;-80
2023/12/16 06:58:55;;;;;;;;;42.75;39.00;;;;;;;;5082377;27;45276;-80
2023/12/16 07:01:23;;;;;;;;;38.00;36.50;;;;;;;;5096808;27;47257;-81
2023/12/16 07:03:48;;;;;;;;;36.00;34.50;;;;;;;;5096823;27;45444;-78
2023/12/16 07:06:14;;;;;;;;;38.25;36.00;;;;;;;;5081170;28;45309;-80
2023/12/16 07:08:40;;;;;;;;;45.50;41.25;;;;;;;;5081261;27;45603;-79
2023/12/16 07:11:05;;;;;;;;;41.00;38.00;;;;;;;;5081247;27;45346;-79
2023/12/16 07:13:30;;;;;;;;;44.75;39.25;;;;;;;;5097390;27;45719;-81
2023/12/16 07:15:56;;;;;;;;;45.25;39.75;;;;;;;;5079862;28;45343;-80
2023/12/16 07:18:21;;;;;;;;;52.50;41.50;;;;;;;;5080434;27;45464;-80
2023/12/16 07:20:46;;;;;;;;;40.75;37.00;;;;;;;;5079251;28;47178;-80
2023/12/16 07:23:11;;;;;;;;;32.50;31.25;;;;;;;;5082395;28;45235;-79
2023/12/16 07:25:37;;;;;;;;;49.50;41.75;;;;;;;;5084012;28;45486;-80
2023/12/16 07:28:02;;;;;;;;;52.75;43.00;;;;;;;;5083869;28;45406;-80
2023/12/16 07:30:27;;;;;;;;;51.25;42.75;;;;;;;;5081408;27;45538;-80
2023/12/16 07:32:52;;;;;;;;;41.00;36.25;;;;;;;;5078834;28;45870;-79
2023/12/16 07:35:17;;;;;;;;;42.25;39.00;;;;;;;;5080014;28;45156;-80
2023/12/16 07:37:43;;;;;;;;;47.50;40.25;;;;;;;;5078897;28;46042;-80
2023/12/16 07:40:09;;;;;;;;;44.75;39.00;;;;;;;;5080449;28;45338;-80
2023/12/16 07:42:35;;;;;;;;;45.25;38.00;;;;;;;;5062344;28;46293;-80
2023/12/16 07:45:00;;;;;;;;;41.00;36.75;;;;;;;;5080196;28;45319;-80
2023/12/16 07:47:26;;;;;;;;;44.50;39.00;;;;;;;;5061258;28;47259;-80
2023/12/16 07:49:51;;;;;;;;;31.80;27.40;;;;;;;;5038792;28;1117406;-80
2023/12/16 07:52:16;;;;;;;;;46.50;39.50;;;;;;;;5080687;28;45383;-80
2023/12/16 07:54:42;;;;;;;;;44.75;39.25;;;;;;;;5080756;28;45307;-80
2023/12/16 07:57:07;;;;;;;;;40.50;36.00;;;;;;;;5080539;28;45267;-80
2023/12/16 07:59:32;;;;;;;;;40.00;36.50;;;;;;;;5062196;28;47212;-80
2023/12/16 08:01:59;;;;;;;;;47.50;40.25;;;;;;;;5080327;28;45348;-80
2023/12/16 08:04:24;;;;;;;;;43.50;38.25;;;;;;;;5081134;28;45338;-80
2023/12/16 08:06:50;;;;;;;;;44.75;39.50;;;;;;;;5081127;28;45255;-80
2023/12/16 08:09:15;;;;;;;;;40.50;36.75;;;;;;;;5080389;28;45402;-80
2023/12/16 08:11:40;;;;;;;;;49.50;41.00;;;;;;;;5079357;28;46121;-80
2023/12/16 08:14:06;;;;;;;;;49.75;41.75;;;;;;;;5079201;28;45177;-80
2023/12/16 08:16:31;;;;;;;;;46.25;40.75;;;;;;;;5062745;28;47051;-79
2023/12/16 08:18:57;;;;;;;;;44.75;40.00;;;;;;;;5061748;28;48306;-80
2023/12/16 08:21:22;;;;;;;;;49.50;40.25;;;;;;;;5080724;28;45311;-80
2023/12/16 08:23:47;;;;;;;;;44.00;38.50;;;;;;;;5081666;28;45334;-78
2023/12/16 08:26:12;;;;;;;;;36.00;33.25;;;;;;;;5079436;28;45517;-79
2023/12/16 08:28:38;;;;;;;;;42.50;37.25;;;;;;;;5077038;28;47023;-80
2023/12/16 08:31:03;;;;;;;;;32.50;29.50;;;;;;;;5079067;28;45559;-80
2023/12/16 08:33:29;;;;;;;;;41.00;37.00;;;;;;;;5060622;28;45362;-80
2023/12/16 08:35:56;;;;;;;;;43.75;37.75;;;;;;;;5079766;28;45308;-79
2023/12/16 08:38:21;;;;;;;;;37.25;36.25;;;;;;;;5079944;28;46026;-79
2023/12/16 08:40:46;;;;;;;;;39.25;33.50;;;;;;;;5079874;28;45508;-80
2023/12/16 08:43:11;;;;;;;;;45.25;39.50;;;;;;;;5080329;28;45265;-80
2023/12/16 08:45:36;;;;;;;;;41.75;37.00;;;;;;;;5080629;28;45575;-78
2023/12/16 08:48:02;;;;;;;;;46.75;39.75;;;;;;;;5091693;28;47204;-77
2023/12/16 08:50:28;;;;;;;;;45.00;38.50;;;;;;;;5099996;28;44786;-76
2023/12/16 08:52:53;;;;;;;;;38.50;36.25;;;;;;;;5082391;28;44732;-75
2023/12/16 08:55:18;;;;;;;;;22.00;13.50;;;;;;;;5081889;28;46169;-76
2023/12/16 08:57:43;;;;;;;;;46.50;39.75;;;;;;;;5098084;28;45317;-76
2023/12/16 09:00:08;;;;;;;;;44.50;37.75;;;;;;;;5098407;27;45384;-76
2023/12/16 09:02:34;;;;;;;;;42.00;38.00;;;;;;;;5098180;27;45038;-76
2023/12/16 09:04:59;;;;;;;;;39.00;36.50;;;;;;;;5081794;27;45361;-80
2023/12/16 09:07:24;;;;;;;;;38.00;35.75;;;;;;;;5080341;27;45344;-79
2023/12/16 09:09:49;;;;;;;;;45.50;38.50;;;;;;;;5080400;27;45333;-80
2023/12/16 09:12:14;;;;;;;;;47.25;40.25;;;;;;;;5081338;27;45521;-79
2023/12/16 09:14:41;;;;;;;;;49.00;39.00;;;;;;;;5095533;27;47416;-79
2023/12/16 09:17:06;;;;;;;;;30.67;28.00;;;;;;;;5072417;28;47067;-80
2023/12/16 09:19:31;;;;;;;;;30.67;30.67;;;;;;;;5079581;28;45309;-79
2023/12/16 09:21:56;;;;;;;;;39.50;35.75;;;;;;;;5062015;28;45220;-79
2023/12/16 09:24:22;;;;;;;;;36.67;34.67;;;;;;;;5080235;28;45196;-79
2023/12/16 09:26:47;;;;;;;;;42.67;34.33;;;;;;;;5079991;28;45363;-80
2023/12/16 09:29:12;;;;;;;;;36.67;34.00;;;;;;;;5079956;28;45231;-80
2023/12/16 09:31:38;;;;;;;;;41.67;37.33;;;;;;;;5078677;28;45412;-80
2023/12/16 09:34:03;;;;;;;;;34.00;32.00;;;;;;;;5078032;28;47135;-80
2023/12/16 09:36:31;;;;;;;;;42.50;39.00;;;;;;;;5079485;28;45637;-80
2023/12/16 09:38:57;;;;;;;;;40.75;36.25;;;;;;;;5079484;28;45405;-80
2023/12/16 09:41:28;;;;;;;;;37.00;34.67;;;;;;;;5079353;28;45326;-80
2023/12/16 09:43:54;;;;;;;;;38.33;35.00;;;;;;;;5061413;28;46357;-80
2023/12/16 09:46:21;;;;;;;;;43.50;37.25;;;;;;;;5079433;28;45355;-80
2023/12/16 09:48:46;;;;;;;;;40.33;36.67;;;;;;;;5080029;28;45365;-78
2023/12/16 09:51:11;;;;;;;;;39.33;36.33;;;;;;;;5079551;28;45492;-80
2023/12/16 09:53:37;;;;;;;;;45.67;39.67;;;;;;;;5078739;28;45292;-80
2023/12/16 09:56:02;;;;;;;;;37.00;36.00;;;;;;;;5061930;28;47162;-80
2023/12/16 09:58:29;;;;;;;;;48.25;40.75;;;;;;;;5049918;28;45787;-79
2023/12/16 10:00:54;;;;;;;;;48.50;39.25;;;;;;;;5078726;28;45445;-79
2023/12/16 10:03:19;;;;;;;;;50.25;42.75;;;;;;;;5078482;28;45477;-80
2023/12/16 10:05:45;;;;;;;;;53.25;44.50;;;;;;;;5089889;27;46252;-80
2023/12/16 10:08:10;;;;;;;;;52.25;43.50;;;;;;;;5068677;27;45245;-79
2023/12/16 10:10:35;;;;;;;;;54.00;43.75;;;;;;;;5058133;28;45256;-80
2023/12/16 10:13:04;;;;;;;;;49.75;40.75;;;;;;;;5057077;28;45420;-80
2023/12/16 10:15:31;;;;;;;;;54.50;45.00;;;;;;;;5039068;28;48129;-80
2023/12/16 10:17:56;;;;;;;;;49.50;41.00;;;;;;;;5043533;28;45569;-79
2023/12/16 10:20:21;;;;;;;;;51.75;41.50;;;;;;;;5077154;28;45367;-80
2023/12/16 10:22:47;;;;;;;;;51.25;43.00;;;;;;;;5077632;28;45390;-79
2023/12/16 10:25:13;;;;;;;;;50.25;42.75;;;;;;;;5076241;28;48015;-80
2023/12/16 10:27:41;;;;;;;;;52.50;42.75;;;;;;;;5075863;28;45784;-80
2023/12/16 10:30:06;;;;;;;;;49.75;39.25;;;;;;;;5077474;28;45290;-80
2023/12/16 10:32:32;;;;;;;;;48.25;39.50;;;;;;;;5077403;28;46364;-80
2023/12/16 10:34:57;;;;;;;;;47.75;40.00;;;;;;;;5063290;28;45430;-80
2023/12/16 10:37:22;;;;;;;;;54.25;43.50;;;;;;;;5076609;28;45354;-81
2023/12/16 10:39:47;;;;;;;;;46.75;40.50;;;;;;;;5076548;28;45672;-80
2023/12/16 10:42:12;;;;;;;;;53.00;42.75;;;;;;;;5069507;28;45592;-80
2023/12/16 10:44:37;;;;;;;;;47.75;41.00;;;;;;;;5080287;28;45440;-80
2023/12/16 10:47:07;;;;;;;;;53.25;44.00;;;;;;;;5080811;28;45311;-80
2023/12/16 10:49:34;;;;;;;;;59.25;48.50;;;;;;;;5082213;28;45406;-80
2023/12/16 10:52:09;;;;;;;;;58.75;48.25;;;;;;;;5081828;28;45476;-80
2023/12/16 10:54:41;;;;;;;;;62.00;51.00;;;;;;;;5080100;28;48405;-80
2023/12/16 10:57:09;;;;;;;;;64.25;51.25;;;;;;;;5081503;28;45318;-80
2023/12/16 10:59:39;;;;;;;;;55.00;46.25;;;;;;;;5080089;28;45497;-80
2023/12/16 11:02:11;;;;;;;;;58.25;48.75;;;;;;;;5063315;28;47756;-80
2023/12/16 11:04:37;;;;;;;;;55.00;45.75;;;;;;;;5063515;28;47373;-80
2023/12/16 11:07:04;;;;;;;;;60.00;48.00;;;;;;;;5082101;28;45296;-80
2023/12/16 11:09:29;;;;;;;;;45.75;38.50;;;;;;;;5082486;28;45272;-80
2023/12/16 11:11:57;;;;;;;;;53.25;43.50;;;;;;;;5081550;28;45372;-80
2023/12/16 11:14:23;;;;;;;;;54.25;44.50;;;;;;;;5081650;28;46157;-80
2023/12/16 11:16:55;;;;;;;;;58.50;48.00;;;;;;;;5063547;28;45360;-80
2023/12/16 11:19:22;;;;;;;;;55.75;44.75;;;;;;;;5082140;28;45335;-80
2023/12/16 11:21:48;;;;;;;;;49.50;41.75;;;;;;;;5063471;28;46209;-80
2023/12/16 11:24:14;;;;;;;;;56.50;46.75;;;;;;;;5081771;28;46405;-80
2023/12/16 11:26:39;;;;;;;;;52.50;42.00;;;;;;;;5063521;28;45383;-80
2023/12/16 11:29:05;;;;;;;;;53.00;40.25;;;;;;;;5081650;28;45256;-81
2023/12/16 11:31:30;;;;;;;;;50.00;43.00;;;;;;;;5063488;28;46144;-80
2023/12/16 11:33:56;;;;;;;;;50.75;42.50;;;;;;;;5081491;28;45343;-81
2023/12/16 11:36:40;;;;;;;;;54.00;42.75;;;;;;;;5081830;28;45293;-80
2023/12/16 11:39:25;;;;;;;;;52.75;43.25;;;;;;;;5081457;28;45337;-80
2023/12/16 11:41:50;;;;;;;;;52.50;43.50;;;;;;;;5062355;28;47671;-80
2023/12/16 11:44:15;;;;;;;;;53.75;43.50;;;;;;;;5062541;28;47626;-80
2023/12/16 11:46:42;;;;;;;;;52.25;41.25;;;;;;;;5080686;28;45251;-80
2023/12/16 11:49:10;;;;;;;;;50.75;42.25;;;;;;;;5079958;28;45343;-81
2023/12/16 11:51:37;;;;;;;;;51.25;41.75;;;;;;;;5080467;28;45438;-80
2023/12/16 11:54:03;;;;;;;;;30.00;28.33;;;;;;;;5078563;28;45492;-80
2023/12/16 11:56:28;;;;;;;;;43.00;37.33;;;;;;;;5080731;28;45318;-81
2023/12/16 11:58:59;;;;;;;;;42.67;36.33;;;;;;;;5096946;27;45742;-81
2023/12/16 12:01:28;;;;;;;;;48.67;37.00;;;;;;;;5096668;27;46742;-81
2023/12/16 12:03:54;;;;;;;;;41.67;36.33;;;;;;;;5096702;27;48241;-81
2023/12/16 12:06:19;;;;;;;;;36.00;31.67;;;;;;;;5080066;28;45331;-80
2023/12/16 12:08:46;;;;;;;;;42.00;36.00;;;;;;;;5081341;27;45314;-80
2023/12/16 12:11:11;;;;;;;;;41.00;35.33;;;;;;;;5080452;27;45478;-80
2023/12/16 12:13:37;;;;;;;;;38.67;35.00;;;;;;;;5079892;28;45761;-80
2023/12/16 12:16:02;;;;;;;;;34.00;28.67;;;;;;;;5080496;28;45256;-80
2023/12/16 12:18:28;;;;;;;;;22.67;22.33;;;;;;;;5079809;28;45436;-80
2023/12/16 12:20:53;;;;;;;;;33.67;30.33;;;;;;;;5081539;28;45303;-80
2023/12/16 12:23:19;;;;;;;;;35.67;33.33;;;;;;;;5081970;28;46104;-79
2023/12/16 12:25:44;;;;;;;;;39.67;35.00;;;;;;;;5081609;28;45244;-79
2023/12/16 12:28:09;;;;;;;;;38.67;32.00;;;;;;;;5082110;28;45338;-79
2023/12/16 12:30:34;;;;;;;;;39.00;34.00;;;;;;;;5079120;28;46557;-80
2023/12/16 12:32:59;;;;;;;;;34.67;32.00;;;;;;;;5081384;28;45506;-80
2023/12/16 12:35:25;;;;;;;;;30.67;26.67;;;;;;;;5080150;28;45772;-81
2023/12/16 12:37:50;;;;;;;;;17.33;16.00;;;;;;;;5079611;28;45449;-79
2023/12/16 12:40:16;;;;;;;;;20.67;18.00;;;;;;;;5080867;28;45303;-78
2023/12/16 12:42:48;;;;;;;;;17.33;15.67;;;;;;;;5080761;28;45486;-80
2023/12/16 12:45:23;;;;;;;;;19.00;19.00;;;;;;;;5081582;28;45335;-80
2023/12/16 12:47:49;;;;;;;;;19.33;19.00;;;;;;;;5081130;28;45415;-80
2023/12/16 12:50:21;;;;;;;;;20.67;18.67;;;;;;;;5080844;28;45268;-82
2023/12/16 12:52:46;;;;;;;;;18.00;16.33;;;;;;;;5080227;28;46588;-75
2023/12/16 12:55:11;;;;;;;;;22.33;21.33;;;;;;;;5080023;28;45198;-76
2023/12/16 12:57:36;;;;;;;;;23.00;23.00;;;;;;;;5069887;28;45215;-78
2023/12/16 13:00:04;;;;;;;;;22.33;21.33;;;;;;;;5078745;28;46802;-78
2023/12/16 13:02:30;;;;;;;;;21.00;19.00;;;;;;;;5080522;27;46100;-78
2023/12/16 13:04:56;;;;;;;;;20.67;20.00;;;;;;;;5079468;27;45405;-79
2023/12/16 13:07:21;;;;;;;;;20.00;20.00;;;;;;;;5080430;27;45391;-79
2023/12/16 13:09:46;;;;;;;;;16.33;16.33;;;;;;;;5084465;27;46336;-78
2023/12/16 13:12:11;;;;;;;;;13.00;13.00;;;;;;;;5078569;28;46185;-77
2023/12/16 13:14:40;;;;;;;;;17.33;16.67;;;;;;;;5078931;28;45481;-78
2023/12/16 13:17:05;;;;;;;;;15.67;14.00;;;;;;;;5080288;28;45284;-78
2023/12/16 13:19:30;;;;;;;;;18.67;18.67;;;;;;;;5078495;28;46168;-79
2023/12/16 13:21:55;;;;;;;;;19.67;17.00;;;;;;;;5079595;28;45170;-77
2023/12/16 13:24:21;;;;;;;;;17.33;17.00;;;;;;;;5078604;28;46004;-78
2023/12/16 13:26:46;;;;;;;;;14.67;14.67;;;;;;;;5080279;28;45280;-78
2023/12/16 13:29:11;;;;;;;;;21.67;18.67;;;;;;;;5078416;28;47332;-78
2023/12/16 13:31:37;;;;;;;;;17.33;17.33;;;;;;;;5079768;28;45905;-80
2023/12/16 13:34:02;;;;;;;;;11.33;11.33;;;;;;;;5077951;28;45336;-79
2023/12/16 13:36:29;;;;;;;;;12.67;11.33;;;;;;;;5080153;28;45355;-79
2023/12/16 13:38:55;;;;;;;;;10.00;10.00;;;;;;;;5079791;28;45457;-79
2023/12/16 13:41:20;;;;;;;;;9.33;9.33;;;;;;;;5078402;28;48346;-80
2023/12/16 13:43:47;;;;;;;;;14.67;12.67;;;;;;;;5079737;28;45468;-79
2023/12/16 13:46:12;;;;;;;;;8.33;8.33;;;;;;;;5076892;28;45766;-79
2023/12/16 13:48:37;;;;;;;;;10.67;9.33;;;;;;;;5057670;28;47285;-78
2023/12/16 13:51:03;;;;;;;;;8.33;7.00;;;;;;;;5077454;28;45479;-79
2023/12/16 13:53:28;;;;;;;;;9.00;8.00;;;;;;;;5077214;28;45344;-79
2023/12/16 13:55:53;;;;;;;;;11.00;9.00;;;;;;;;5079755;28;45563;-79
2023/12/16 13:58:20;;;;;;;;;8.00;8.00;;;;;;;;5073030;28;47126;-79
2023/12/16 14:00:45;;;;;;;;;7.33;7.33;;;;;;;;5079085;27;45302;-78
2023/12/16 14:03:10;;;;;;;;;8.33;7.00;;;;;;;;5079254;27;45179;-79
2023/12/16 14:05:36;;;;;;;;;9.67;9.67;;;;;;;;5079606;27;45278;-77
2023/12/16 14:08:01;;;;;;;;;6.67;6.67;;;;;;;;5079651;28;45195;-79
2023/12/16 14:10:26;;;;;;;;;12.33;10.33;;;;;;;;5078597;27;45638;-77